Mesa, AZ (85201)

5:59 AM MST on March 05, 2015 (GMT -0700)
W 1st St.@ Date St. | Change Station
CLOSE
Current Station
Personal Weather Station
Location: Mesa, AZ
Elevation: 1230 ft
Nearby Weather Stations

Elev 1230 ft 33.41 °N, 111.85 °W | Updated 9 seconds ago

Clear
Clear
47.7 °F
Feels Like 48 °F
N
0.6
Wind Variable Wind from NE
Gusts 2.3 mph

Today
High -- | Low -- °F
--% Chance of Precip.
Yesterday
High -- | Low -- °F
Precip. -- in
6:50 AM 6:27 PM
Full, 100% visible
Pressure 30.20 in
Visibility 20.0 miles
Clouds Clear
Windchill 48 °F
Dew Point 25 °F
Humidity 41%
Rainfall in
Snow Depth Not available.
UV 0 out of 12
Pollen 9.70 out of 12
Air Quality Not available.
Flu Activity Not available.
METAR KFFZ 051248Z 01012KT 20SM SKC 10/M06 A3020 RMK WIND ESTIMATED

More Conditions Fewer Conditions

Pressure 30.20 in
Visibility 20.0 miles
Clouds Clear
Windchill 48 °F
Dew Point 25 °F
Humidity 41%
Rainfall in
Snow Depth Not available.
UV 0 out of 12
Pollen 9.70 out of 12
Air Quality Not available.
Flu Activity Not available.
METAR KFFZ 051248Z 01012KT 20SM SKC 10/M06 A3020 RMK WIND ESTIMATED

More Conditions Fewer Conditions

10-Day Weather Forecast

Almanac

Astronomy

Mar. 05, 2015 Rise Set
Actual Time
Civil Twilight
Nautical Twilight
Astronomical Twilight
Moon
Length of Visible Light
Length of Day
Tomorrow will be .
, % of the Moon is Illuminated

Today's Extremes

State Highs State Lows

Community

WunderPhotos

Upload Photos

1,802,737 photos uploaded!

WunderBlogs® & News

Nearby

Air Quality

  Air Quality AQ Index Pollutant
Not available.

Snow Depth

Station Depth Elevation

Earthquake Activity

City Distance Mag. Time & Date
Minimum magnitude displayed is 2.5.

Coastal Water Temperatures

Place Temperature

Nearby Weather Stations